Latest Weather Observations for Maatsuyker Island

IDT60801

Issued at 8:02 am EST Friday 29 July 2016 (issued every 30 minutes, with the page automatically refreshed every 10 minutes)

About weather observations | Map of weather stations | Latest weather observations for TAS | Other Formats
Station Details ID: 094041 Name: MAATSUYKER ISLAND LIGHTHOUSE Lat: -43.66 Lon: 146.27 Height: 146.5 m
Data from the previous 72 hours. | See also: Recent months at Maatsuyker Island
Date/Time
EST
Temp
°C
App
Temp
°C
Dew
Point
°C
Rel
Hum
%
Delta-T
°C
Wind Press
QNH
hPa
Press
MSL
hPa
Rain since
9am
mm
Dir  Spd
km/h
Gust
km/h
Spd
kts
Gust
kts
29/08:00am 9.7 -8.4 6.5 80 1.5 NW 91 102 49 55 1003.4 - 3.0
29/07:36am 9.2 -7.4 8.0 92 0.6 NW 85 104 46 56 1003.9 - 3.0
29/07:30am 8.7 -8.7 7.7 93 0.5 NW 89 104 48 56 1003.4 - 3.0
29/07:00am 9.3 -7.7 8.1 92 0.6 NW 87 104 47 56 1003.0 - 2.4
29/06:51am 9.5 -5.7 8.3 92 0.6 NW 78 104 42 56 1003.4 - 2.4
29/06:30am 9.0 -7.6 8.0 93 0.5 NW 85 98 46 53 1003.3 - 2.4
29/06:15am 9.4 -7.5 6.9 84 1.2 NW 85 104 46 56 1003.7 - 2.4
29/06:00am 9.6 -5.2 6.9 83 1.3 NW 74 104 40 56 1003.3 1003.4 2.4
29/05:36am 9.5 -9.1 7.6 88 0.9 NW 95 113 51 61 1004.0 - 2.2
29/05:30am 8.7 -10.9 7.2 90 0.7 NW 100 113 54 61 1002.8 - 2.2
29/05:00am 9.7 -8.2 7.2 84 1.2 NW 91 106 49 57 1003.1 - 2.2
29/04:30am 9.3 -8.2 7.6 89 0.8 NW 89 107 48 58 1003.3 - 2.2
29/04:09am 9.6 -6.3 7.1 84 1.2 NNW 80 102 43 55 1003.6 - 2.0
29/04:00am 9.7 -6.2 7.0 83 1.3 NNW 80 96 43 52 1004.1 - 2.0
29/03:30am 9.3 -7.1 7.2 87 1.0 NNW 83 102 45 55 1004.3 - 2.0
29/03:00am 9.5 -6.9 6.3 80 1.5 NNW 82 102 44 55 1004.3 1004.5 2.0
29/02:55am 9.9 -6.7 6.3 78 1.7 NW 83 102 45 55 1004.5 - 2.0
29/02:30am 9.8 -6.6 7.1 83 1.3 NW 83 100 45 54 1005.1 - 2.0
29/02:00am 9.5 -7.3 7.2 85 1.1 NW 85 98 46 53 1004.9 - 2.0
29/01:37am 9.7 -5.7 7.4 85 1.1 NW 78 98 42 53 1005.1 - 2.0
29/01:30am 9.5 -5.2 7.2 85 1.1 NNW 74 89 40 48 1005.8 - 2.0
29/01:04am 9.4 -5.3 7.3 87 1.0 NNW 74 93 40 50 1005.9 - 2.0
29/01:00am 9.5 -5.6 7.2 85 1.1 NNW 76 87 41 47 1005.7 - 2.0
29/12:30am 9.5 -6.1 6.8 83 1.3 NW 78 95 42 51 1005.9 - 1.8
29/12:11am 9.9 -5.6 7.0 82 1.4 NNW 78 96 42 52 1005.9 - 1.8
29/12:00am 9.8 -6.1 7.1 83 1.3 NW 80 91 43 49 1006.5 1006.7 1.8
 
Date/Time
EST
Temp
°C
App
Temp
°C
Dew
Point
°C
Rel
Hum
%
Delta-T
°C
Wind Press
QNH
hPa
Press
MSL
hPa
Rain since
9am
mm
Dir  Spd
km/h
Gust
km/h
Spd
kts
Gust
kts
28/11:30pm 9.0 -7.2 7.3 89 0.8 NW 82 96 44 52 1006.1 - 1.8
28/11:00pm 9.9 -4.7 6.0 77 1.8 NNW 72 89 39 48 1006.7 - 1.8
28/10:30pm 9.4 -5.4 6.9 84 1.2 NNW 74 93 40 50 1007.5 - 1.8
28/10:00pm 9.7 -4.4 6.3 79 1.6 NNW 70 85 38 46 1007.2 - 1.8
28/09:30pm 9.5 -4.7 7.8 89 0.8 NNW 72 82 39 44 1007.7 - 1.8
28/09:00pm 9.4 -4.3 8.2 92 0.6 NNW 70 83 38 45 1008.0 1008.2 1.6
28/08:57pm 9.2 -5.3 8.0 92 0.6 NNW 74 93 40 50 1007.9 - 1.6
28/08:30pm 9.5 -4.4 7.4 87 1.0 NNW 70 87 38 47 1008.2 - 1.6
28/08:22pm 9.2 -4.5 7.3 88 0.9 NNW 69 87 37 47 1007.8 - 1.6
28/08:00pm 9.9 -6.1 6.7 80 1.5 NW 80 89 43 48 1008.3 - 1.6
28/07:30pm 9.3 -5.6 7.9 91 0.7 NW 76 89 41 48 1008.2 - 1.6
28/07:22pm 9.4 -4.2 7.7 89 0.8 NNW 69 89 37 48 1008.2 - 1.6
28/07:00pm 9.1 -6.1 8.3 95 0.4 NW 78 87 42 47 1008.2 - 1.6
28/06:30pm 9.7 -7.0 7.6 87 1.0 NW 85 95 46 51 1007.3 - 1.6
28/06:00pm 9.0 -7.6 8.0 93 0.5 NW 85 95 46 51 1007.5 1007.7 1.4
28/05:30pm 9.6 -6.9 8.6 93 0.5 NW 85 102 46 55 1007.6 - 1.4
28/05:02pm 9.9 -5.0 7.8 87 1.0 NW 76 95 41 51 1007.7 - 1.4
28/05:00pm 9.8 -5.6 7.7 87 1.0 NW 78 95 42 51 1007.7 - 1.4
28/04:30pm 9.8 -6.8 6.6 80 1.5 NW 83 93 45 50 1007.2 - 1.4
28/04:00pm 9.2 -8.7 7.5 89 0.8 NW 91 106 49 57 1006.6 - 1.4
28/03:30pm 9.5 -7.6 7.6 88 0.9 NW 87 98 47 53 1006.8 - 1.4
28/03:14pm 9.0 -8.3 8.2 95 0.4 NW 89 107 48 58 1006.2 - 1.4
28/03:00pm 9.3 -7.8 7.6 89 0.8 NW 87 100 47 54 1006.6 1006.8 1.2
28/02:30pm 9.6 -7.8 7.7 88 0.9 NW 89 98 48 53 1006.3 - 1.0
28/02:00pm 9.1 -8.0 7.6 90 0.7 NW 87 102 47 55 1006.3 - 1.0
28/01:48pm 9.3 -8.9 7.9 91 0.7 NW 93 111 50 60 1006.2 - 1.0
28/01:30pm 9.5 -8.2 8.3 92 0.6 NW 91 102 49 55 1006.0 - 0.8
28/01:00pm 9.4 -8.3 8.4 93 0.5 NW 91 102 49 55 1006.0 - 0.8
28/12:30pm 9.7 -8.4 8.1 90 0.8 NW 93 104 50 56 1005.7 - 0.8
28/12:15pm 9.5 -7.7 8.7 95 0.4 NW 89 111 48 60 1005.8 - 0.8
28/12:00pm 9.0 -8.7 8.2 95 0.4 NW 91 104 49 56 1006.1 1006.3 0.6
28/11:31am 10.2 -8.5 7.1 81 1.5 NW 95 113 51 61 1005.8 - 0.6
28/11:30am 10.2 -8.4 7.5 83 1.3 NW 95 107 51 58 1006.0 - 0.6
28/11:13am 9.5 -9.0 7.9 90 0.8 NW 95 122 51 66 1005.7 - 0.6
28/11:00am 9.4 -10.2 7.5 88 0.9 NW 100 117 54 63 1006.3 - 0.6
28/10:34am 10.2 -7.5 8.4 89 0.9 NW 91 111 49 60 1005.1 - 0.4
28/10:30am 10.0 -7.2 8.6 91 0.7 NW 89 104 48 56 1005.4 - 0.4
28/10:00am 9.7 -8.7 8.5 92 0.6 NW 95 109 51 59 1005.1 - 0.4
28/09:30am 9.9 -8.7 8.3 90 0.8 NW 96 111 52 60 1005.4 - 0.0
28/09:14am 10.0 -10.4 7.1 82 1.4 NW 104 122 56 66 1005.1 - 0.0
28/09:00am 10.3 -10.4 7.4 82 1.4 NW 106 119 57 64 1004.5 1004.7 5.8
28/08:30am 9.9 -10.6 8.5 91 0.7 NW 106 124 57 67 1004.2 - 5.6
28/08:03am 9.6 -10.2 8.2 91 0.7 NW 102 120 55 65 1004.0 - 5.6
28/08:00am 9.6 -10.4 8.8 95 0.4 NW 104 120 56 65 1003.9 - 5.6
28/07:58am 9.7 -10.7 8.7 93 0.5 NW 106 120 57 65 1003.9 - 5.4
28/07:30am 10.3 -10.5 8.1 86 1.1 NW 107 126 58 68 1001.9 - 5.4
28/07:04am 10.1 -9.1 9.1 93 0.5 NW 100 119 54 64 1002.6 - 5.4
28/07:00am 10.1 -9.4 9.3 95 0.4 NW 102 119 55 64 1002.4 - 5.2
28/06:37am 10.2 -8.3 8.8 91 0.7 NW 96 115 52 62 1002.6 - 5.2
28/06:30am 10.3 -9.5 8.3 87 1.0 NW 102 115 55 62 1002.6 - 5.2
28/06:09am 9.7 -8.2 8.9 95 0.4 NW 93 119 50 64 1001.5 - 5.0
28/06:00am 9.8 -7.0 8.8 93 0.5 NW 87 98 47 53 1002.8 1002.9 5.0
28/05:30am 9.2 -7.7 8.4 95 0.4 NW 87 100 47 54 1003.6 - 4.6
28/05:00am 9.8 -7.1 6.9 82 1.4 NW 85 96 46 52 1003.5 - 4.0
28/04:30am 9.7 -7.1 7.2 84 1.2 NW 85 98 46 53 1003.3 - 4.0
28/04:00am 10.2 -8.1 5.4 72 2.2 NW 91 104 49 56 1003.6 - 4.0
28/03:30am 10.2 -7.3 5.9 74 2.0 NW 87 98 47 53 1004.1 - 4.0
28/03:03am 9.7 -6.1 7.4 85 1.1 NW 80 100 43 54 1003.9 - 4.0
28/03:00am 10.0 -5.1 7.3 83 1.3 NW 76 85 41 46 1005.0 1005.2 3.8
28/02:30am 9.5 -8.7 6.1 79 1.6 NW 91 100 49 54 1005.1 - 3.8
28/02:00am 9.4 -6.0 7.3 87 1.0 NW 78 89 42 48 1005.4 - 3.8
28/01:42am 9.2 -7.0 7.3 88 0.9 NW 82 100 44 54 1005.6 - 3.6
28/01:30am 10.3 -7.1 4.6 68 2.6 NW 85 96 46 52 1004.8 - 3.4
28/01:00am 10.4 -8.4 4.9 69 2.5 NW 93 104 50 56 1004.2 - 3.4
28/12:30am 10.0 -6.5 4.2 67 2.6 WNW 80 91 43 49 1004.8 - 3.4
28/12:00am 10.0 -8.0 3.4 63 2.9 WNW 87 102 47 55 1004.1 1004.3 3.4
 
Date/Time
EST
Temp
°C
App
Temp
°C
Dew
Point
°C
Rel
Hum
%
Delta-T
°C
Wind Press
QNH
hPa
Press
MSL
hPa
Rain since
9am
mm
Dir  Spd
km/h
Gust
km/h
Spd
kts
Gust
kts
27/11:40pm 10.0 -6.9 4.2 67 2.6 WNW 82 100 44 54 1004.4 - 3.4
27/11:30pm 9.8 -7.8 3.2 63 2.9 WNW 85 96 46 52 1004.1 - 3.4
27/11:00pm 9.8 -7.4 3.2 63 2.9 WNW 83 100 45 54 1003.6 - 3.4
27/10:30pm 9.7 -9.1 2.8 62 3.0 WNW 91 102 49 55 1003.6 - 3.4
27/10:18pm 9.8 -7.3 2.6 61 3.1 WNW 82 100 44 54 1003.6 - 3.4
27/10:00pm 9.6 -7.8 2.4 61 3.1 WNW 83 96 45 52 1004.1 - 3.4
27/09:34pm 9.6 -7.5 2.7 62 3.0 WNW 82 100 44 54 1004.0 - 3.4
27/09:30pm 9.5 -8.7 1.7 58 3.3 WNW 87 100 47 54 1004.0 - 3.4
27/09:12pm 9.6 -8.7 1.5 57 3.4 WNW 87 106 47 57 1003.1 - 3.4
27/09:00pm 9.6 -9.4 1.5 57 3.4 WNW 91 102 49 55 1002.8 1002.9 3.4
27/08:30pm 9.7 -8.0 2.8 62 3.0 WNW 85 106 46 57 1002.9 - 3.4
27/08:00pm 9.6 -8.2 2.4 61 3.1 WNW 85 107 46 58 1002.0 - 3.4
27/07:48pm 9.6 -6.6 3.7 66 2.6 WNW 78 96 42 52 1002.5 - 3.4
27/07:30pm 9.4 -6.9 3.2 65 2.7 WNW 78 91 42 49 1002.5 - 3.4
27/07:00pm 9.3 -6.5 3.6 67 2.5 WNW 76 95 41 51 1002.0 - 3.4
27/06:32pm 9.1 -9.1 1.7 60 3.1 WNW 87 109 47 59 1001.6 - 3.4
27/06:30pm 9.1 -8.6 2.6 64 2.8 WNW 85 102 46 55 1001.6 - 3.4
27/06:00pm 9.1 -8.2 6.8 85 1.1 WNW 87 109 47 59 1000.0 1000.2 3.4
27/05:42pm 9.1 -8.7 7.9 92 0.6 WNW 91 111 49 60 999.4 - 3.4
27/05:41pm 9.4 -12.9 8.0 91 0.7 NW 115 135 62 73 999.2 - 3.4
27/05:38pm 10.2 -12.9 8.0 86 1.1 NW 119 135 64 73 997.4 - 3.2
27/05:30pm 10.3 -12.0 8.1 86 1.1 NW 115 135 62 73 995.0 - 3.2
27/05:01pm 9.7 -13.3 8.1 90 0.8 NW 119 137 64 74 994.1 - 3.2
27/05:00pm 9.7 -13.4 7.9 88 0.9 NW 119 133 64 72 994.6 - 3.2
27/04:30pm 8.5 -13.2 7.2 91 0.6 NNW 111 137 60 74 994.3 - 3.0
27/04:23pm 8.3 -12.2 6.8 90 0.7 NNW 104 137 56 74 993.9 - 3.0
27/04:00pm 7.8 -11.1 6.1 89 0.8 NNW 95 113 51 61 995.5 - 2.6
27/03:43pm 7.5 -11.8 5.5 87 0.9 NNW 96 115 52 62 995.4 - 2.4
27/03:30pm 7.4 -11.7 5.2 86 1.0 NNW 95 107 51 58 995.9 - 2.0
27/03:25pm 7.3 -12.0 4.4 82 1.3 NNW 95 113 51 61 996.4 - 1.8
27/03:19pm 7.5 -12.5 3.6 76 1.7 NNW 98 107 53 58 996.4 - 1.8
27/03:00pm 7.8 -8.7 3.9 76 1.7 NNW 80 100 43 54 997.1 997.2 1.6
27/02:30pm 7.5 -8.7 3.8 77 1.6 NNW 78 98 42 53 998.2 - 1.6
27/02:12pm 7.2 -9.7 4.2 81 1.3 NNW 82 100 44 54 998.8 - 1.6
27/02:03pm 6.6 -12.1 3.3 79 1.4 NNW 91 100 49 54 998.1 - 1.4
27/02:00pm 7.4 -6.6 2.4 70 2.1 NNW 65 89 35 48 999.4 - 1.4
27/01:30pm 6.3 -9.8 1.9 73 1.8 NNW 76 95 41 51 999.8 - 1.4
27/01:01pm 6.3 -10.8 3.0 79 1.4 NW 82 100 44 54 1000.3 - 1.4
27/01:00pm 6.5 -10.7 3.2 79 1.4 NW 83 100 45 54 1000.0 - 1.4
27/12:55pm 6.0 -13.2 2.9 80 1.3 NW 93 100 50 54 999.7 - 1.4
27/12:46pm 6.8 -8.6 2.0 71 2.0 NW 72 91 39 49 1000.2 - 1.0
27/12:30pm 5.9 -9.0 2.5 79 1.4 NW 70 83 38 45 1001.4 - 1.0
27/12:26pm 5.3 -10.0 2.1 80 1.3 NW 72 83 39 45 1001.2 - 1.0
27/12:23pm 5.2 -14.2 3.8 91 0.6 NW 95 113 51 61 1000.9 - 1.0
27/12:20pm 4.9 -15.1 3.7 92 0.5 NW 98 113 53 61 1000.4 - 0.8
27/12:18pm 6.9 -9.1 2.4 73 1.9 NW 76 98 41 53 1000.5 - 0.6
27/12:00pm 7.3 -9.2 -0.3 58 3.0 NW 76 89 41 48 1001.8 1002.0 0.6
27/11:37am 7.4 -7.3 0.4 61 2.8 NW 67 87 36 47 1001.5 - 0.4
27/11:30am 7.1 -7.0 1.5 67 2.3 NW 65 76 35 41 1002.7 - 0.4
27/11:00am 7.2 -6.3 0.8 64 2.6 NW 61 80 33 43 1002.4 - 0.4
27/10:30am 6.5 -9.1 0.5 65 2.4 NW 72 83 39 45 1002.9 - 0.4
27/10:13am 6.5 -9.0 1.3 69 2.1 NW 72 95 39 51 1002.1 - 0.4
27/10:00am 6.3 -10.1 -0.1 63 2.5 NW 76 85 41 46 1002.6 - 0.4
27/09:59am 6.2 -10.3 -0.5 62 2.6 NW 76 85 41 46 1002.5 - 0.4
27/09:36am 6.0 -6.7 1.0 70 2.0 WNW 57 80 31 43 1002.8 - 0.4
27/09:30am 5.6 -7.3 -0.4 65 2.3 WNW 57 69 31 37 1003.3 - 0.4
27/09:00am 4.9 -4.4 2.7 86 0.9 WNW 41 72 22 39 1002.8 1002.9 12.0
27/08:54am 4.4 -5.1 1.7 83 1.1 WNW 41 48 22 26 1002.9 - 12.0
27/08:48am 5.0 -9.7 2.6 84 1.0 NW 69 76 37 41 1001.8 - 11.6
27/08:30am 6.0 -5.2 2.1 76 1.6 WNW 50 61 27 33 1002.1 - 10.8
27/08:05am 5.6 -3.9 1.9 77 1.5 WNW 41 61 22 33 1001.9 - 10.6
27/08:00am 4.6 -5.3 1.6 81 1.2 WNW 43 59 23 32 1002.4 - 10.6
27/07:30am 5.5 -6.6 -1.4 61 2.6 WNW 52 65 28 35 1001.9 - 10.4
27/07:15am 5.5 -4.6 0.4 70 2.0 W 43 54 23 29 1001.7 - 10.4
27/07:10am 5.2 -3.5 2.3 81 1.2 WSW 37 56 20 30 1001.7 - 10.4
27/07:00am 4.9 -5.6 1.7 80 1.3 WSW 46 59 25 32 1001.5 - 10.4
27/06:56am 5.5 -4.6 1.5 75 1.6 WSW 44 54 24 29 1001.3 - 10.4
27/06:33am 4.7 -5.7 -0.3 70 1.9 WNW 44 76 24 41 1000.3 - 10.4
27/06:31am 4.9 -4.2 1.9 81 1.2 WNW 39 57 21 31 1000.7 - 10.2
27/06:30am 4.8 -4.0 1.3 78 1.4 WNW 37 50 20 27 1000.8 - 10.2
27/06:22am 4.6 -3.9 0.8 76 1.5 WNW 35 43 19 23 1000.5 - 10.2
27/06:00am 5.0 -2.9 1.0 75 1.6 W 32 67 17 36 1000.1 1000.3 9.8
27/05:49am 5.7 -1.4 1.5 74 1.7 W 28 54 15 29 1000.0 - 9.6
27/05:38am 4.7 -3.7 1.5 80 1.3 W 35 43 19 23 999.9 - 9.6
27/05:30am 4.9 -4.3 1.1 76 1.5 SW 39 54 21 29 999.7 - 9.4
27/05:26am 5.4 -3.2 0.3 69 2.0 SW 35 54 19 29 999.8 - 9.4
27/05:15am 5.7 -4.5 -0.2 66 2.3 WSW 43 54 23 29 999.6 - 9.4
27/05:00am 6.3 -4.8 -2.7 52 3.3 WNW 46 61 25 33 999.3 - 9.4
27/04:51am 6.2 -4.6 -3.2 51 3.4 W 44 63 24 34 999.2 - 9.4
27/04:30am 6.1 -3.9 -1.6 58 2.9 W 41 57 22 31 998.9 - 9.4
27/04:00am 6.0 -3.9 -0.8 61 2.6 W 41 59 22 32 998.2 - 9.4
27/03:52am 5.9 -4.1 -1.5 59 2.8 W 41 59 22 32 998.1 - 9.4
27/03:45am 5.8 -4.1 -1.0 61 2.6 W 41 56 22 30 998.0 - 9.4
27/03:34am 4.6 -4.0 0.2 73 1.7 WSW 35 54 19 29 997.7 - 9.4
27/03:30am 4.9 -5.2 0.6 74 1.7 WSW 43 54 23 29 997.9 - 9.4
27/03:22am 5.6 -4.5 0.5 70 2.0 W 43 61 23 33 997.6 - 9.4
27/03:16am 5.2 -4.0 1.2 75 1.6 W 39 50 21 27 997.5 - 9.4
27/03:04am 5.7 -3.5 1.5 74 1.7 WSW 39 59 21 32 997.2 - 9.4
27/03:00am 5.6 -3.1 1.7 76 1.6 WSW 37 52 20 28 997.1 997.2 9.4
27/02:30am 5.0 -2.9 2.3 83 1.1 WSW 33 52 18 28 996.6 - 9.4
27/02:24am 5.1 -2.7 2.9 86 0.9 WSW 33 52 18 28 996.6 - 9.4
27/02:23am 5.1 -2.4 3.2 87 0.8 W 32 43 17 23 996.5 - 9.4
27/02:04am 5.2 -3.6 3.6 89 0.7 SW 39 65 21 35 995.8 - 9.4
27/02:00am 4.9 -4.6 4.0 94 0.4 SW 43 56 23 30 995.6 - 9.4
27/01:30am 4.9 -3.9 3.5 91 0.6 SW 39 69 21 37 994.9 - 9.4
27/01:17am 4.7 -5.6 2.8 87 0.8 SW 46 65 25 35 994.6 - 9.4
27/01:13am 4.7 -4.5 3.3 91 0.6 SW 41 52 22 28 994.4 - 9.4
27/01:00am 4.5 -8.5 3.6 94 0.4 SSW 61 78 33 42 993.7 - 9.2
27/12:38am 5.3 -6.1 4.8 97 0.2 SSW 54 70 29 38 992.8 - 9.0
27/12:37am 5.4 -5.7 4.5 94 0.4 WSW 52 70 28 38 992.7 - 9.0
27/12:30am 5.3 -5.1 4.4 94 0.4 WSW 48 65 26 35 992.8 - 9.0
27/12:28am 5.3 -4.6 4.6 95 0.3 WSW 46 65 25 35 992.7 - 9.0
27/12:27am 5.4 -4.0 4.7 95 0.3 WSW 43 57 23 31 992.6 - 8.8
27/12:18am 5.9 -6.2 5.9 100 0.0 W 59 78 32 42 992.5 - 8.6
27/12:15am 6.5 -5.9 6.5 100 0.0 WNW 61 78 33 42 992.4 - 8.4
27/12:14am 6.9 -10.4 6.5 97 0.2 NW 87 115 47 62 991.6 - 8.4
27/12:07am 6.3 -11.5 5.9 97 0.2 NW 89 115 48 62 989.5 - 6.8
27/12:05am 6.8 -10.0 5.5 91 0.6 NW 83 95 45 51 990.3 - 6.2
27/12:00am 6.4 -5.5 5.3 93 0.5 NNW 57 83 31 45 989.8 989.9 6.0
 
Date/Time
EST
Temp
°C
App
Temp
°C
Dew
Point
°C
Rel
Hum
%
Delta-T
°C
Wind Press
QNH
hPa
Press
MSL
hPa
Rain since
9am
mm
Dir  Spd
km/h
Gust
km/h
Spd
kts
Gust
kts
26/11:40pm 6.7 -3.8 5.4 91 0.6 NNW 50 69 27 37 990.8 - 5.0
26/11:30pm 6.7 -5.1 4.9 88 0.8 NNW 56 70 30 38 990.5 - 4.8
26/11:11pm 6.4 -3.8 5.1 91 0.6 NNW 48 67 26 36 991.1 - 4.4
26/11:00pm 6.6 -3.3 4.8 88 0.8 NNW 46 59 25 32 991.2 - 4.2
26/10:30pm 6.9 -3.4 4.7 86 1.0 NNW 48 63 26 34 991.4 - 3.6
26/10:02pm 6.6 -4.5 4.3 85 1.0 NNW 52 70 28 38 992.0 - 3.6
26/10:00pm 6.6 -4.5 4.6 87 0.9 NNW 52 69 28 37 992.0 - 3.6
26/09:30pm 6.0 -4.0 4.4 89 0.7 NNW 46 63 25 34 992.5 - 3.6
26/09:00pm 6.6 -3.3 4.8 88 0.8 NNW 46 65 25 35 992.9 993.1 3.6
26/08:43pm 6.2 -3.4 4.4 88 0.8 NNW 44 65 24 35 993.1 - 3.6
26/08:30pm 5.6 -3.8 4.5 93 0.5 NNW 43 56 23 30 993.7 - 3.6
26/08:00pm 5.3 -4.4 4.1 92 0.5 NNW 44 59 24 32 994.7 - 3.2
26/07:32pm 4.9 -4.4 3.2 89 0.7 NNW 41 63 22 34 994.8 - 2.8
26/07:30pm 4.8 -4.4 3.4 91 0.6 NNW 41 54 22 29 995.0 - 2.8
26/07:07pm 5.3 -4.5 3.4 87 0.8 NNW 44 63 24 34 994.9 - 2.8
26/07:00pm 5.4 -4.8 3.3 86 0.9 NNW 46 61 25 33 995.0 - 2.8
26/06:30pm 5.6 -5.0 3.2 84 1.0 NNW 48 67 26 36 995.2 - 2.8
26/06:09pm 5.7 -3.8 4.1 89 0.7 NNW 43 61 23 33 995.0 - 2.8
26/06:00pm 5.8 -3.6 4.2 89 0.7 NNW 43 57 23 31 995.4 995.5 2.8
26/05:30pm 6.0 -1.9 4.4 89 0.7 NNW 35 48 19 26 995.8 - 2.4
26/05:00pm 6.4 -4.4 4.3 86 0.9 NNW 50 78 27 42 995.4 - 2.0
26/04:31pm 7.4 -3.2 3.2 75 1.8 NNW 48 70 26 38 995.0 - 1.8
26/04:30pm 7.5 -3.2 2.8 72 2.0 NNW 48 61 26 33 995.3 - 1.8
26/04:21pm 7.4 -2.8 3.0 73 1.9 NNW 46 59 25 32 995.4 - 1.8
26/04:00pm 8.2 -6.5 2.3 66 2.5 NW 69 76 37 41 994.8 - 1.8
26/03:30pm 7.6 -7.4 1.9 67 2.4 NNW 70 83 38 45 994.8 - 1.8
26/03:00pm 7.0 -8.3 2.2 71 2.0 NW 72 83 39 45 994.6 994.8 1.8
26/02:30pm 5.9 -9.8 4.5 91 0.6 NW 76 95 41 51 994.8 - 1.8
26/02:28pm 5.5 -10.3 3.9 89 0.7 NW 76 85 41 46 994.9 - 1.8
26/02:23pm 5.8 -5.9 3.5 85 1.0 NNW 54 83 29 45 995.7 - 1.2
26/02:19pm 6.2 -4.8 2.9 79 1.4 NNW 50 61 27 33 995.0 - 0.2
26/02:00pm 8.0 -7.3 -0.3 56 3.3 NW 70 89 38 48 994.7 - 0.0
26/01:59pm 8.1 -7.3 -0.8 53 3.5 NW 70 89 38 48 994.6 - 0.0
26/01:30pm 7.5 -8.6 2.3 69 2.2 NW 76 85 41 46 994.6 - 0.0
26/01:04pm 6.8 -10.5 2.0 71 2.0 NW 82 100 44 54 995.4 - 0.0
26/01:00pm 7.4 -10.4 2.2 69 2.2 NW 85 100 46 54 995.2 - 0.0
26/12:30pm 8.1 -10.8 -0.1 56 3.2 NW 89 102 48 55 993.8 - 0.0
26/12:09pm 7.4 -10.9 1.6 66 2.4 NW 87 106 47 57 993.5 - 0.0
26/12:00pm 7.1 -11.6 1.2 66 2.4 NW 89 100 48 54 994.2 994.4 0.0
26/11:45am 7.1 -11.0 2.4 72 2.0 NW 87 106 47 57 993.6 - 0.0
26/11:30am 8.0 -10.0 0.6 59 3.0 NW 85 98 46 53 994.1 - 0.0
26/11:00am 7.9 -11.0 -0.1 57 3.2 NW 89 100 48 54 993.9 - 0.0
26/10:43am 7.7 -11.9 0.6 61 2.8 NW 93 111 50 60 993.3 - 0.0
26/10:30am 7.2 -11.5 1.4 66 2.4 WNW 89 102 48 55 993.7 - 0.0
26/10:00am 7.9 -13.0 0.8 61 2.9 NW 100 119 54 64 992.5 - 0.0
26/09:36am 7.5 -11.6 1.2 64 2.6 NW 91 109 49 59 992.3 - 0.0
26/09:30am 7.3 -12.1 1.5 66 2.4 NW 93 109 50 59 992.8 - 0.0
26/09:16am 7.5 -13.9 -0.3 57 3.1 NW 102 120 55 65 992.1 - 0.0
26/09:00am 7.0 -14.6 0.8 64 2.5 NW 104 119 56 64 991.8 991.9 11.0
26/08:30am 5.3 -14.7 3.4 87 0.8 WNW 98 119 53 64 992.1 - 11.0
26/08:20am 6.9 -14.2 1.6 69 2.2 NW 102 122 55 66 992.3 - 10.6
26/08:18am 7.7 -14.1 -0.3 57 3.1 NW 104 122 56 66 990.1 - 10.6

Other Formats:

Comma delimited format used in spreadsheet applications
http://www.bom.gov.au/fwo/IDT60801/IDT60801.94962.axf

JavaScript Object Notation format (JSON) in row-major order
http://www.bom.gov.au/fwo/IDT60801/IDT60801.94962.json